sensor_id;sensor_type;location;lat;lon;timestamp;P1;durP1;ratioP1;P2;durP2;ratioP2
25079;SDS011;13071;48.868;9.996;2023-05-29T00:00:20;5.30;;;3.28;;
25079;SDS011;13071;48.868;9.996;2023-05-29T00:02:47;8.70;;;3.75;;
25079;SDS011;13071;48.868;9.996;2023-05-29T00:05:14;6.97;;;3.58;;
25079;SDS011;13071;48.868;9.996;2023-05-29T00:07:41;8.50;;;3.85;;
25079;SDS011;13071;48.868;9.996;2023-05-29T00:10:09;6.47;;;3.40;;
25079;SDS011;13071;48.868;9.996;2023-05-29T00:12:36;7.70;;;3.95;;
25079;SDS011;13071;48.868;9.996;2023-05-29T00:15:04;8.63;;;3.90;;
25079;SDS011;13071;48.868;9.996;2023-05-29T00:17:32;8.27;;;3.72;;
25079;SDS011;13071;48.868;9.996;2023-05-29T00:19:58;7.38;;;3.50;;
25079;SDS011;13071;48.868;9.996;2023-05-29T00:22:26;9.18;;;3.75;;
25079;SDS011;13071;48.868;9.996;2023-05-29T00:24:53;5.53;;;3.30;;
25079;SDS011;13071;48.868;9.996;2023-05-29T00:27:21;12.45;;;4.10;;
25079;SDS011;13071;48.868;9.996;2023-05-29T00:29:47;6.88;;;3.65;;
25079;SDS011;13071;48.868;9.996;2023-05-29T00:32:14;7.40;;;3.63;;
25079;SDS011;13071;48.868;9.996;2023-05-29T00:34:40;8.95;;;4.28;;
25079;SDS011;13071;48.868;9.996;2023-05-29T00:37:07;6.57;;;3.92;;
25079;SDS011;13071;48.868;9.996;2023-05-29T00:39:33;6.35;;;3.53;;
25079;SDS011;13071;48.868;9.996;2023-05-29T00:42:00;6.85;;;3.40;;
25079;SDS011;13071;48.868;9.996;2023-05-29T00:44:28;8.27;;;3.63;;
25079;SDS011;13071;48.868;9.996;2023-05-29T00:46:55;6.07;;;3.30;;
25079;SDS011;13071;48.868;9.996;2023-05-29T00:49:23;8.30;;;3.72;;
25079;SDS011;13071;48.868;9.996;2023-05-29T00:51:50;6.18;;;3.70;;
25079;SDS011;13071;48.868;9.996;2023-05-29T00:54:20;9.55;;;3.80;;
25079;SDS011;13071;48.868;9.996;2023-05-29T00:56:49;9.18;;;3.70;;
25079;SDS011;13071;48.868;9.996;2023-05-29T00:59:17;9.13;;;4.00;;
25079;SDS011;13071;48.868;9.996;2023-05-29T01:01:47;9.55;;;3.28;;
25079;SDS011;13071;48.868;9.996;2023-05-29T01:04:15;5.43;;;3.55;;
25079;SDS011;13071;48.868;9.996;2023-05-29T01:06:42;6.13;;;3.42;;
25079;SDS011;13071;48.868;9.996;2023-05-29T01:09:10;6.63;;;3.53;;
25079;SDS011;13071;48.868;9.996;2023-05-29T01:11:40;6.43;;;3.90;;
25079;SDS011;13071;48.868;9.996;2023-05-29T01:14:13;8.63;;;3.90;;
25079;SDS011;13071;48.868;9.996;2023-05-29T01:16:44;4.80;;;3.40;;
25079;SDS011;13071;48.868;9.996;2023-05-29T01:19:20;6.28;;;3.70;;
25079;SDS011;13071;48.868;9.996;2023-05-29T01:22:00;8.93;;;3.85;;
25079;SDS011;13071;48.868;9.996;2023-05-29T01:24:42;5.15;;;3.22;;
25079;SDS011;13071;48.868;9.996;2023-05-29T01:27:17;7.18;;;3.53;;
25079;SDS011;13071;48.868;9.996;2023-05-29T01:29:45;6.40;;;3.33;;
25079;SDS011;13071;48.868;9.996;2023-05-29T01:32:13;5.65;;;3.28;;
25079;SDS011;13071;48.868;9.996;2023-05-29T01:34:40;6.10;;;3.38;;
25079;SDS011;13071;48.868;9.996;2023-05-29T01:37:06;6.75;;;3.63;;
25079;SDS011;13071;48.868;9.996;2023-05-29T01:39:33;7.95;;;4.03;;
25079;SDS011;13071;48.868;9.996;2023-05-29T01:42:00;7.55;;;3.63;;
25079;SDS011;13071;48.868;9.996;2023-05-29T01:44:29;7.97;;;3.60;;
25079;SDS011;13071;48.868;9.996;2023-05-29T01:46:56;7.72;;;3.55;;
25079;SDS011;13071;48.868;9.996;2023-05-29T01:49:24;7.90;;;3.53;;
25079;SDS011;13071;48.868;9.996;2023-05-29T01:51:52;6.88;;;3.55;;
25079;SDS011;13071;48.868;9.996;2023-05-29T01:54:18;8.60;;;3.83;;
25079;SDS011;13071;48.868;9.996;2023-05-29T01:56:46;6.53;;;3.65;;
25079;SDS011;13071;48.868;9.996;2023-05-29T01:59:13;5.55;;;3.10;;
25079;SDS011;13071;48.868;9.996;2023-05-29T02:01:42;9.50;;;3.63;;
25079;SDS011;13071;48.868;9.996;2023-05-29T02:04:09;6.68;;;3.50;;
25079;SDS011;13071;48.868;9.996;2023-05-29T02:06:35;8.85;;;3.17;;
25079;SDS011;13071;48.868;9.996;2023-05-29T02:09:02;7.15;;;3.47;;
25079;SDS011;13071;48.868;9.996;2023-05-29T02:11:29;7.07;;;3.90;;
25079;SDS011;13071;48.868;9.996;2023-05-29T02:13:55;6.45;;;3.42;;
25079;SDS011;13071;48.868;9.996;2023-05-29T02:16:22;8.18;;;3.67;;
25079;SDS011;13071;48.868;9.996;2023-05-29T02:18:50;5.47;;;3.42;;
25079;SDS011;13071;48.868;9.996;2023-05-29T02:21:17;8.07;;;3.60;;
25079;SDS011;13071;48.868;9.996;2023-05-29T02:23:43;6.32;;;3.38;;
25079;SDS011;13071;48.868;9.996;2023-05-29T02:26:11;6.80;;;3.20;;
25079;SDS011;13071;48.868;9.996;2023-05-29T02:28:39;6.32;;;3.28;;
25079;SDS011;13071;48.868;9.996;2023-05-29T02:31:05;9.40;;;3.22;;
25079;SDS011;13071;48.868;9.996;2023-05-29T02:33:32;11.57;;;3.58;;
25079;SDS011;13071;48.868;9.996;2023-05-29T02:36:00;9.25;;;3.63;;
25079;SDS011;13071;48.868;9.996;2023-05-29T02:38:26;6.93;;;3.65;;
25079;SDS011;13071;48.868;9.996;2023-05-29T02:40:53;8.27;;;3.85;;
25079;SDS011;13071;48.868;9.996;2023-05-29T02:43:21;6.55;;;3.78;;
25079;SDS011;13071;48.868;9.996;2023-05-29T02:45:47;7.40;;;4.15;;
25079;SDS011;13071;48.868;9.996;2023-05-29T02:48:14;6.15;;;3.35;;
25079;SDS011;13071;48.868;9.996;2023-05-29T02:50:41;8.85;;;3.78;;
25079;SDS011;13071;48.868;9.996;2023-05-29T02:53:08;4.97;;;3.63;;
25079;SDS011;13071;48.868;9.996;2023-05-29T02:55:35;5.65;;;3.38;;
25079;SDS011;13071;48.868;9.996;2023-05-29T02:58:02;6.82;;;3.50;;
25079;SDS011;13071;48.868;9.996;2023-05-29T03:00:29;5.78;;;3.45;;
25079;SDS011;13071;48.868;9.996;2023-05-29T03:02:55;11.48;;;4.18;;
25079;SDS011;13071;48.868;9.996;2023-05-29T03:05:22;5.88;;;3.35;;
25079;SDS011;13071;48.868;9.996;2023-05-29T03:07:48;8.07;;;3.65;;
25079;SDS011;13071;48.868;9.996;2023-05-29T03:10:16;5.70;;;3.65;;
25079;SDS011;13071;48.868;9.996;2023-05-29T03:12:43;8.93;;;3.67;;
25079;SDS011;13071;48.868;9.996;2023-05-29T03:15:10;6.90;;;3.33;;
25079;SDS011;13071;48.868;9.996;2023-05-29T03:17:37;9.07;;;3.58;;
25079;SDS011;13071;48.868;9.996;2023-05-29T03:20:03;8.02;;;3.75;;
25079;SDS011;13071;48.868;9.996;2023-05-29T03:22:33;7.57;;;3.30;;
25079;SDS011;13071;48.868;9.996;2023-05-29T03:25:00;6.60;;;3.13;;
25079;SDS011;13071;48.868;9.996;2023-05-29T03:27:28;6.03;;;3.85;;
25079;SDS011;13071;48.868;9.996;2023-05-29T03:29:55;6.47;;;3.55;;
25079;SDS011;13071;48.868;9.996;2023-05-29T03:32:22;8.00;;;3.42;;
25079;SDS011;13071;48.868;9.996;2023-05-29T03:34:49;7.40;;;3.30;;
25079;SDS011;13071;48.868;9.996;2023-05-29T03:37:16;10.68;;;3.47;;
25079;SDS011;13071;48.868;9.996;2023-05-29T03:39:42;7.80;;;3.28;;
25079;SDS011;13071;48.868;9.996;2023-05-29T03:42:10;8.38;;;3.35;;
25079;SDS011;13071;48.868;9.996;2023-05-29T03:44:38;6.85;;;3.67;;
25079;SDS011;13071;48.868;9.996;2023-05-29T03:47:04;7.80;;;3.50;;
25079;SDS011;13071;48.868;9.996;2023-05-29T03:49:33;8.88;;;3.58;;
25079;SDS011;13071;48.868;9.996;2023-05-29T03:52:00;6.10;;;3.38;;
25079;SDS011;13071;48.868;9.996;2023-05-29T03:54:27;7.10;;;3.78;;
25079;SDS011;13071;48.868;9.996;2023-05-29T03:56:53;6.70;;;3.45;;
25079;SDS011;13071;48.868;9.996;2023-05-29T03:59:20;7.40;;;3.28;;
25079;SDS011;13071;48.868;9.996;2023-05-29T04:01:48;6.93;;;3.75;;
25079;SDS011;13071;48.868;9.996;2023-05-29T04:04:14;11.63;;;4.00;;
25079;SDS011;13071;48.868;9.996;2023-05-29T04:06:41;7.90;;;3.67;;
25079;SDS011;13071;48.868;9.996;2023-05-29T04:09:07;5.80;;;3.78;;
25079;SDS011;13071;48.868;9.996;2023-05-29T04:11:34;8.13;;;3.80;;
25079;SDS011;13071;48.868;9.996;2023-05-29T04:14:03;7.32;;;3.40;;
25079;SDS011;13071;48.868;9.996;2023-05-29T04:16:30;7.65;;;3.88;;
25079;SDS011;13071;48.868;9.996;2023-05-29T04:18:58;6.20;;;3.78;;
25079;SDS011;13071;48.868;9.996;2023-05-29T04:21:24;6.78;;;3.72;;
25079;SDS011;13071;48.868;9.996;2023-05-29T04:23:51;6.65;;;3.45;;
25079;SDS011;13071;48.868;9.996;2023-05-29T04:26:19;6.90;;;3.75;;
25079;SDS011;13071;48.868;9.996;2023-05-29T04:28:49;6.28;;;3.83;;
25079;SDS011;13071;48.868;9.996;2023-05-29T04:31:17;5.75;;;3.90;;
25079;SDS011;13071;48.868;9.996;2023-05-29T04:33:44;8.75;;;3.28;;
25079;SDS011;13071;48.868;9.996;2023-05-29T04:36:12;9.23;;;3.88;;
25079;SDS011;13071;48.868;9.996;2023-05-29T04:38:39;7.90;;;3.92;;
25079;SDS011;13071;48.868;9.996;2023-05-29T04:41:06;7.93;;;3.70;;
25079;SDS011;13071;48.868;9.996;2023-05-29T04:43:33;6.28;;;3.90;;
25079;SDS011;13071;48.868;9.996;2023-05-29T04:46:02;8.68;;;4.40;;
25079;SDS011;13071;48.868;9.996;2023-05-29T04:48:28;7.10;;;3.80;;
25079;SDS011;13071;48.868;9.996;2023-05-29T04:50:55;5.93;;;3.95;;
25079;SDS011;13071;48.868;9.996;2023-05-29T04:53:23;7.65;;;4.10;;
25079;SDS011;13071;48.868;9.996;2023-05-29T04:55:50;7.90;;;3.60;;
25079;SDS011;13071;48.868;9.996;2023-05-29T04:58:16;5.10;;;3.72;;
25079;SDS011;13071;48.868;9.996;2023-05-29T05:00:43;10.50;;;3.92;;
25079;SDS011;13071;48.868;9.996;2023-05-29T05:03:09;11.52;;;3.92;;
25079;SDS011;13071;48.868;9.996;2023-05-29T05:05:36;7.35;;;3.50;;
25079;SDS011;13071;48.868;9.996;2023-05-29T05:08:03;7.97;;;3.88;;
25079;SDS011;13071;48.868;9.996;2023-05-29T05:10:31;5.93;;;3.50;;
25079;SDS011;13071;48.868;9.996;2023-05-29T05:12:57;7.70;;;3.90;;
25079;SDS011;13071;48.868;9.996;2023-05-29T05:15:24;7.60;;;3.90;;
25079;SDS011;13071;48.868;9.996;2023-05-29T05:17:50;6.35;;;3.70;;
25079;SDS011;13071;48.868;9.996;2023-05-29T05:20:17;6.07;;;4.20;;
25079;SDS011;13071;48.868;9.996;2023-05-29T05:22:44;9.05;;;4.53;;
25079;SDS011;13071;48.868;9.996;2023-05-29T05:25:10;7.80;;;3.60;;
25079;SDS011;13071;48.868;9.996;2023-05-29T05:27:38;8.13;;;3.70;;
25079;SDS011;13071;48.868;9.996;2023-05-29T05:30:06;9.13;;;3.95;;
25079;SDS011;13071;48.868;9.996;2023-05-29T05:32:34;6.75;;;3.83;;
25079;SDS011;13071;48.868;9.996;2023-05-29T05:35:01;9.32;;;3.80;;
25079;SDS011;13071;48.868;9.996;2023-05-29T05:37:28;10.38;;;4.55;;
25079;SDS011;13071;48.868;9.996;2023-05-29T05:39:55;6.63;;;4.20;;
25079;SDS011;13071;48.868;9.996;2023-05-29T05:42:23;9.55;;;4.60;;
25079;SDS011;13071;48.868;9.996;2023-05-29T05:44:51;9.20;;;3.65;;
25079;SDS011;13071;48.868;9.996;2023-05-29T05:47:17;10.48;;;4.00;;
25079;SDS011;13071;48.868;9.996;2023-05-29T05:49:44;8.23;;;3.70;;
25079;SDS011;13071;48.868;9.996;2023-05-29T05:52:10;6.68;;;4.15;;
25079;SDS011;13071;48.868;9.996;2023-05-29T05:54:37;8.60;;;3.92;;
25079;SDS011;13071;48.868;9.996;2023-05-29T05:57:04;8.05;;;4.05;;
25079;SDS011;13071;48.868;9.996;2023-05-29T05:59:32;12.90;;;4.07;;
25079;SDS011;13071;48.868;9.996;2023-05-29T06:02:00;8.50;;;4.20;;
25079;SDS011;13071;48.868;9.996;2023-05-29T06:04:28;6.43;;;3.50;;
25079;SDS011;13071;48.868;9.996;2023-05-29T06:06:55;7.13;;;3.67;;
25079;SDS011;13071;48.868;9.996;2023-05-29T06:09:21;9.93;;;4.10;;
25079;SDS011;13071;48.868;9.996;2023-05-29T06:11:48;8.52;;;3.83;;
25079;SDS011;13071;48.868;9.996;2023-05-29T06:14:15;6.65;;;3.75;;
25079;SDS011;13071;48.868;9.996;2023-05-29T06:16:41;6.45;;;3.70;;
25079;SDS011;13071;48.868;9.996;2023-05-29T06:19:09;7.32;;;3.75;;
25079;SDS011;13071;48.868;9.996;2023-05-29T06:21:36;6.65;;;3.80;;
25079;SDS011;13071;48.868;9.996;2023-05-29T06:24:03;6.82;;;4.13;;
25079;SDS011;13071;48.868;9.996;2023-05-29T06:26:30;8.77;;;3.90;;
25079;SDS011;13071;48.868;9.996;2023-05-29T06:28:57;4.85;;;3.22;;
25079;SDS011;13071;48.868;9.996;2023-05-29T06:31:24;7.68;;;3.95;;
25079;SDS011;13071;48.868;9.996;2023-05-29T06:33:50;11.73;;;4.18;;
25079;SDS011;13071;48.868;9.996;2023-05-29T06:36:18;7.45;;;4.05;;
25079;SDS011;13071;48.868;9.996;2023-05-29T06:38:45;7.25;;;3.08;;
25079;SDS011;13071;48.868;9.996;2023-05-29T06:41:13;8.13;;;3.97;;
25079;SDS011;13071;48.868;9.996;2023-05-29T06:43:39;8.85;;;4.00;;
25079;SDS011;13071;48.868;9.996;2023-05-29T06:46:06;9.20;;;4.13;;
25079;SDS011;13071;48.868;9.996;2023-05-29T06:48:32;5.43;;;3.38;;
25079;SDS011;13071;48.868;9.996;2023-05-29T06:50:59;7.57;;;3.38;;
25079;SDS011;13071;48.868;9.996;2023-05-29T06:53:27;8.57;;;3.92;;
25079;SDS011;13071;48.868;9.996;2023-05-29T06:55:54;9.63;;;3.78;;
25079;SDS011;13071;48.868;9.996;2023-05-29T06:58:20;6.95;;;3.45;;
25079;SDS011;13071;48.868;9.996;2023-05-29T07:00:47;4.88;;;3.28;;
25079;SDS011;13071;48.868;9.996;2023-05-29T07:03:13;5.32;;;3.22;;
25079;SDS011;13071;48.868;9.996;2023-05-29T07:05:42;5.10;;;3.70;;
25079;SDS011;13071;48.868;9.996;2023-05-29T07:08:11;6.28;;;3.70;;
25079;SDS011;13071;48.868;9.996;2023-05-29T07:10:39;6.60;;;3.80;;
25079;SDS011;13071;48.868;9.996;2023-05-29T07:13:08;7.30;;;3.90;;
25079;SDS011;13071;48.868;9.996;2023-05-29T07:15:34;7.03;;;3.35;;
25079;SDS011;13071;48.868;9.996;2023-05-29T07:18:03;6.75;;;3.20;;
25079;SDS011;13071;48.868;9.996;2023-05-29T07:20:30;5.15;;;3.42;;
25079;SDS011;13071;48.868;9.996;2023-05-29T07:22:57;6.40;;;3.13;;
25079;SDS011;13071;48.868;9.996;2023-05-29T07:25:23;10.23;;;4.00;;
25079;SDS011;13071;48.868;9.996;2023-05-29T07:27:52;4.70;;;3.20;;
25079;SDS011;13071;48.868;9.996;2023-05-29T07:30:19;5.55;;;3.20;;
25079;SDS011;13071;48.868;9.996;2023-05-29T07:32:46;7.85;;;3.60;;
25079;SDS011;13071;48.868;9.996;2023-05-29T07:35:12;7.00;;;3.22;;
25079;SDS011;13071;48.868;9.996;2023-05-29T07:37:39;6.55;;;3.45;;
25079;SDS011;13071;48.868;9.996;2023-05-29T07:40:06;6.88;;;3.28;;
25079;SDS011;13071;48.868;9.996;2023-05-29T07:42:34;6.43;;;3.28;;
25079;SDS011;13071;48.868;9.996;2023-05-29T07:45:02;5.97;;;3.42;;
25079;SDS011;13071;48.868;9.996;2023-05-29T07:47:29;6.00;;;3.35;;
25079;SDS011;13071;48.868;9.996;2023-05-29T07:49:55;6.88;;;3.25;;
25079;SDS011;13071;48.868;9.996;2023-05-29T07:52:22;6.75;;;3.05;;
25079;SDS011;13071;48.868;9.996;2023-05-29T07:54:49;7.22;;;3.38;;
25079;SDS011;13071;48.868;9.996;2023-05-29T07:57:15;8.73;;;3.50;;
25079;SDS011;13071;48.868;9.996;2023-05-29T07:59:44;7.88;;;3.40;;
25079;SDS011;13071;48.868;9.996;2023-05-29T08:02:15;6.13;;;3.47;;
25079;SDS011;13071;48.868;9.996;2023-05-29T08:04:42;4.07;;;2.90;;
25079;SDS011;13071;48.868;9.996;2023-05-29T08:07:09;4.65;;;3.53;;
25079;SDS011;13071;48.868;9.996;2023-05-29T08:09:36;6.07;;;3.53;;
25079;SDS011;13071;48.868;9.996;2023-05-29T08:12:03;4.90;;;2.72;;
25079;SDS011;13071;48.868;9.996;2023-05-29T08:14:35;5.13;;;3.25;;
25079;SDS011;13071;48.868;9.996;2023-05-29T08:17:04;7.35;;;3.33;;
25079;SDS011;13071;48.868;9.996;2023-05-29T08:19:33;6.35;;;3.50;;
25079;SDS011;13071;48.868;9.996;2023-05-29T08:22:00;6.00;;;3.05;;
25079;SDS011;13071;48.868;9.996;2023-05-29T08:24:26;5.40;;;3.03;;
25079;SDS011;13071;48.868;9.996;2023-05-29T08:26:53;9.13;;;3.63;;
25079;SDS011;13071;48.868;9.996;2023-05-29T08:29:19;5.75;;;3.28;;
25079;SDS011;13071;48.868;9.996;2023-05-29T08:31:46;8.35;;;3.38;;
25079;SDS011;13071;48.868;9.996;2023-05-29T08:34:13;9.13;;;3.55;;
25079;SDS011;13071;48.868;9.996;2023-05-29T08:36:41;6.93;;;3.78;;
25079;SDS011;13071;48.868;9.996;2023-05-29T08:39:08;5.90;;;2.83;;
25079;SDS011;13071;48.868;9.996;2023-05-29T08:41:37;5.35;;;3.38;;
25079;SDS011;13071;48.868;9.996;2023-05-29T08:44:08;5.90;;;3.22;;
25079;SDS011;13071;48.868;9.996;2023-05-29T08:46:39;4.78;;;3.20;;
25079;SDS011;13071;48.868;9.996;2023-05-29T08:49:06;3.80;;;3.17;;
25079;SDS011;13071;48.868;9.996;2023-05-29T08:51:36;5.30;;;3.15;;
25079;SDS011;13071;48.868;9.996;2023-05-29T08:54:07;4.18;;;2.90;;
25079;SDS011;13071;48.868;9.996;2023-05-29T08:56:35;6.28;;;3.28;;
25079;SDS011;13071;48.868;9.996;2023-05-29T08:59:02;3.70;;;2.63;;
25079;SDS011;13071;48.868;9.996;2023-05-29T09:01:28;9.68;;;3.22;;
25079;SDS011;13071;48.868;9.996;2023-05-29T09:03:57;6.30;;;3.08;;
25079;SDS011;13071;48.868;9.996;2023-05-29T09:06:24;7.78;;;2.92;;
25079;SDS011;13071;48.868;9.996;2023-05-29T09:08:51;4.68;;;3.03;;
25079;SDS011;13071;48.868;9.996;2023-05-29T09:11:19;4.68;;;2.83;;
25079;SDS011;13071;48.868;9.996;2023-05-29T09:13:46;4.97;;;3.15;;
25079;SDS011;13071;48.868;9.996;2023-05-29T09:16:13;3.33;;;3.00;;
25079;SDS011;13071;48.868;9.996;2023-05-29T09:18:42;8.27;;;2.80;;
25079;SDS011;13071;48.868;9.996;2023-05-29T09:21:10;6.68;;;3.17;;
25079;SDS011;13071;48.868;9.996;2023-05-29T09:23:51;3.97;;;2.75;;
25079;SDS011;13071;48.868;9.996;2023-05-29T09:26:20;4.65;;;3.08;;
25079;SDS011;13071;48.868;9.996;2023-05-29T09:28:48;4.72;;;2.90;;
25079;SDS011;13071;48.868;9.996;2023-05-29T09:31:15;6.07;;;3.30;;
25079;SDS011;13071;48.868;9.996;2023-05-29T09:33:46;10.60;;;2.75;;
25079;SDS011;13071;48.868;9.996;2023-05-29T09:36:19;5.05;;;2.65;;
25079;SDS011;13071;48.868;9.996;2023-05-29T09:38:47;6.43;;;3.15;;
25079;SDS011;13071;48.868;9.996;2023-05-29T09:41:13;6.45;;;3.03;;
25079;SDS011;13071;48.868;9.996;2023-05-29T09:43:48;5.07;;;2.90;;
25079;SDS011;13071;48.868;9.996;2023-05-29T09:46:15;3.95;;;2.55;;
25079;SDS011;13071;48.868;9.996;2023-05-29T09:48:43;5.55;;;2.97;;
25079;SDS011;13071;48.868;9.996;2023-05-29T09:51:18;8.63;;;2.83;;
25079;SDS011;13071;48.868;9.996;2023-05-29T09:53:46;5.78;;;2.65;;
25079;SDS011;13071;48.868;9.996;2023-05-29T09:56:15;6.47;;;2.45;;
25079;SDS011;13071;48.868;9.996;2023-05-29T09:58:44;5.80;;;2.55;;
25079;SDS011;13071;48.868;9.996;2023-05-29T10:01:12;5.55;;;2.90;;
25079;SDS011;13071;48.868;9.996;2023-05-29T10:03:40;5.60;;;2.78;;
25079;SDS011;13071;48.868;9.996;2023-05-29T10:06:07;3.80;;;2.47;;
25079;SDS011;13071;48.868;9.996;2023-05-29T10:08:37;4.55;;;2.90;;
25079;SDS011;13071;48.868;9.996;2023-05-29T10:11:08;4.05;;;2.80;;
25079;SDS011;13071;48.868;9.996;2023-05-29T10:13:41;5.18;;;2.70;;
25079;SDS011;13071;48.868;9.996;2023-05-29T10:16:15;5.25;;;2.95;;
25079;SDS011;13071;48.868;9.996;2023-05-29T10:18:43;9.95;;;3.28;;
25079;SDS011;13071;48.868;9.996;2023-05-29T10:21:11;10.18;;;3.08;;
25079;SDS011;13071;48.868;9.996;2023-05-29T10:23:39;4.53;;;2.63;;
25079;SDS011;13071;48.868;9.996;2023-05-29T10:26:10;8.90;;;3.17;;
25079;SDS011;13071;48.868;9.996;2023-05-29T10:28:43;6.32;;;3.13;;
25079;SDS011;13071;48.868;9.996;2023-05-29T10:31:14;4.53;;;2.65;;
25079;SDS011;13071;48.868;9.996;2023-05-29T10:33:51;6.35;;;3.50;;
25079;SDS011;13071;48.868;9.996;2023-05-29T10:36:28;4.70;;;2.65;;
25079;SDS011;13071;48.868;9.996;2023-05-29T10:38:57;4.18;;;2.72;;
25079;SDS011;13071;48.868;9.996;2023-05-29T10:41:31;5.00;;;2.80;;
25079;SDS011;13071;48.868;9.996;2023-05-29T10:43:59;5.70;;;3.00;;
25079;SDS011;13071;48.868;9.996;2023-05-29T10:49:30;5.22;;;3.08;;
25079;SDS011;13071;48.868;9.996;2023-05-29T10:51:57;3.78;;;2.55;;
25079;SDS011;13071;48.868;9.996;2023-05-29T10:54:24;3.10;;;2.80;;
25079;SDS011;13071;48.868;9.996;2023-05-29T10:56:52;4.82;;;3.15;;
25079;SDS011;13071;48.868;9.996;2023-05-29T10:59:21;4.43;;;2.90;;
25079;SDS011;13071;48.868;9.996;2023-05-29T11:01:51;4.38;;;2.97;;
25079;SDS011;13071;48.868;9.996;2023-05-29T11:04:29;4.03;;;2.70;;
25079;SDS011;13071;48.868;9.996;2023-05-29T11:06:57;5.30;;;2.90;;
25079;SDS011;13071;48.868;9.996;2023-05-29T11:09:31;6.07;;;2.67;;
25079;SDS011;13071;48.868;9.996;2023-05-29T11:12:09;4.72;;;2.85;;
25079;SDS011;13071;48.868;9.996;2023-05-29T11:14:47;3.38;;;2.60;;
25079;SDS011;13071;48.868;9.996;2023-05-29T11:17:30;4.40;;;2.55;;
25079;SDS011;13071;48.868;9.996;2023-05-29T11:20:00;4.78;;;2.63;;
25079;SDS011;13071;48.868;9.996;2023-05-29T11:22:33;4.45;;;2.63;;
25079;SDS011;13071;48.868;9.996;2023-05-29T11:25:13;5.93;;;3.03;;
25079;SDS011;13071;48.868;9.996;2023-05-29T11:27:40;3.05;;;2.42;;
25079;SDS011;13071;48.868;9.996;2023-05-29T11:30:07;5.60;;;2.90;;
25079;SDS011;13071;48.868;9.996;2023-05-29T11:32:34;4.03;;;2.60;;
25079;SDS011;13071;48.868;9.996;2023-05-29T11:35:05;5.10;;;2.80;;
25079;SDS011;13071;48.868;9.996;2023-05-29T11:37:34;6.45;;;2.97;;
25079;SDS011;13071;48.868;9.996;2023-05-29T11:40:02;4.50;;;3.08;;
25079;SDS011;13071;48.868;9.996;2023-05-29T11:42:30;6.72;;;3.20;;
25079;SDS011;13071;48.868;9.996;2023-05-29T11:45:09;5.78;;;3.05;;
25079;SDS011;13071;48.868;9.996;2023-05-29T11:47:49;4.25;;;3.08;;
25079;SDS011;13071;48.868;9.996;2023-05-29T11:50:19;3.63;;;2.75;;
25079;SDS011;13071;48.868;9.996;2023-05-29T11:52:46;4.60;;;2.95;;
25079;SDS011;13071;48.868;9.996;2023-05-29T11:55:13;7.78;;;3.33;;
25079;SDS011;13071;48.868;9.996;2023-05-29T11:57:39;4.88;;;3.00;;
25079;SDS011;13071;48.868;9.996;2023-05-29T12:00:07;4.68;;;2.83;;
25079;SDS011;13071;48.868;9.996;2023-05-29T12:02:35;3.13;;;2.70;;
25079;SDS011;13071;48.868;9.996;2023-05-29T12:05:02;4.97;;;3.30;;
25079;SDS011;13071;48.868;9.996;2023-05-29T12:07:33;4.28;;;2.78;;
25079;SDS011;13071;48.868;9.996;2023-05-29T12:10:08;5.00;;;2.83;;
25079;SDS011;13071;48.868;9.996;2023-05-29T12:12:35;4.95;;;3.13;;
25079;SDS011;13071;48.868;9.996;2023-05-29T12:15:02;5.68;;;3.33;;
25079;SDS011;13071;48.868;9.996;2023-05-29T12:17:31;6.45;;;3.22;;
25079;SDS011;13071;48.868;9.996;2023-05-29T12:19:58;5.13;;;2.92;;
25079;SDS011;13071;48.868;9.996;2023-05-29T12:22:36;4.38;;;3.22;;
25079;SDS011;13071;48.868;9.996;2023-05-29T12:25:05;4.78;;;3.00;;
25079;SDS011;13071;48.868;9.996;2023-05-29T12:27:32;4.82;;;2.95;;
25079;SDS011;13071;48.868;9.996;2023-05-29T12:30:03;4.28;;;2.88;;
25079;SDS011;13071;48.868;9.996;2023-05-29T12:32:34;4.18;;;3.03;;
25079;SDS011;13071;48.868;9.996;2023-05-29T12:35:01;4.18;;;3.00;;
25079;SDS011;13071;48.868;9.996;2023-05-29T12:37:37;3.67;;;2.53;;
25079;SDS011;13071;48.868;9.996;2023-05-29T12:40:13;7.45;;;3.47;;
25079;SDS011;13071;48.868;9.996;2023-05-29T12:42:40;3.45;;;2.78;;
25079;SDS011;13071;48.868;9.996;2023-05-29T12:45:08;6.65;;;2.72;;
25079;SDS011;13071;48.868;9.996;2023-05-29T12:47:35;4.75;;;3.10;;
25079;SDS011;13071;48.868;9.996;2023-05-29T12:50:17;4.68;;;2.60;;
25079;SDS011;13071;48.868;9.996;2023-05-29T12:52:48;4.20;;;2.50;;
25079;SDS011;13071;48.868;9.996;2023-05-29T12:55:19;6.50;;;2.65;;
25079;SDS011;13071;48.868;9.996;2023-05-29T12:57:46;4.20;;;2.78;;
25079;SDS011;13071;48.868;9.996;2023-05-29T13:00:13;7.40;;;3.35;;
25079;SDS011;13071;48.868;9.996;2023-05-29T13:02:40;2.88;;;2.63;;
25079;SDS011;13071;48.868;9.996;2023-05-29T13:05:06;3.97;;;2.80;;
25079;SDS011;13071;48.868;9.996;2023-05-29T13:07:33;5.10;;;2.75;;
25079;SDS011;13071;48.868;9.996;2023-05-29T13:10:01;4.00;;;2.80;;
25079;SDS011;13071;48.868;9.996;2023-05-29T13:12:28;2.90;;;2.40;;
25079;SDS011;13071;48.868;9.996;2023-05-29T13:14:54;4.10;;;2.70;;
25079;SDS011;13071;48.868;9.996;2023-05-29T13:17:22;4.05;;;2.75;;
25079;SDS011;13071;48.868;9.996;2023-05-29T13:19:48;4.80;;;2.80;;
25079;SDS011;13071;48.868;9.996;2023-05-29T13:22:15;6.43;;;2.88;;
25079;SDS011;13071;48.868;9.996;2023-05-29T13:24:42;5.13;;;3.08;;
25079;SDS011;13071;48.868;9.996;2023-05-29T13:27:09;3.92;;;2.63;;
25079;SDS011;13071;48.868;9.996;2023-05-29T13:29:38;3.08;;;2.53;;
25079;SDS011;13071;48.868;9.996;2023-05-29T13:32:05;5.00;;;3.20;;
25079;SDS011;13071;48.868;9.996;2023-05-29T13:34:32;4.38;;;2.88;;
25079;SDS011;13071;48.868;9.996;2023-05-29T13:36:59;4.65;;;2.78;;
25079;SDS011;13071;48.868;9.996;2023-05-29T13:39:27;6.03;;;3.08;;
25079;SDS011;13071;48.868;9.996;2023-05-29T13:41:54;3.90;;;2.78;;
25079;SDS011;13071;48.868;9.996;2023-05-29T13:44:22;4.57;;;2.50;;
25079;SDS011;13071;48.868;9.996;2023-05-29T13:46:48;6.47;;;2.88;;
25079;SDS011;13071;48.868;9.996;2023-05-29T13:49:15;4.68;;;2.92;;
25079;SDS011;13071;48.868;9.996;2023-05-29T13:51:42;4.93;;;2.85;;
25079;SDS011;13071;48.868;9.996;2023-05-29T13:54:11;6.15;;;2.70;;
25079;SDS011;13071;48.868;9.996;2023-05-29T13:56:38;5.38;;;2.85;;
25079;SDS011;13071;48.868;9.996;2023-05-29T13:59:04;4.90;;;3.10;;
25079;SDS011;13071;48.868;9.996;2023-05-29T14:01:32;4.53;;;3.13;;
25079;SDS011;13071;48.868;9.996;2023-05-29T14:03:59;3.00;;;2.63;;
25079;SDS011;13071;48.868;9.996;2023-05-29T14:06:26;6.20;;;2.92;;
25079;SDS011;13071;48.868;9.996;2023-05-29T14:08:53;5.70;;;3.08;;
25079;SDS011;13071;48.868;9.996;2023-05-29T14:11:20;4.40;;;2.83;;
25079;SDS011;13071;48.868;9.996;2023-05-29T14:13:47;4.35;;;2.85;;
25079;SDS011;13071;48.868;9.996;2023-05-29T14:16:14;3.95;;;2.80;;
25079;SDS011;13071;48.868;9.996;2023-05-29T14:18:42;3.28;;;2.65;;
25079;SDS011;13071;48.868;9.996;2023-05-29T14:21:09;6.85;;;3.03;;
25079;SDS011;13071;48.868;9.996;2023-05-29T14:23:36;4.32;;;2.80;;
25079;SDS011;13071;48.868;9.996;2023-05-29T14:26:03;4.03;;;2.40;;
25079;SDS011;13071;48.868;9.996;2023-05-29T14:28:30;2.97;;;2.65;;
25079;SDS011;13071;48.868;9.996;2023-05-29T14:30:56;4.00;;;3.13;;
25079;SDS011;13071;48.868;9.996;2023-05-29T14:33:23;3.65;;;2.75;;
25079;SDS011;13071;48.868;9.996;2023-05-29T14:35:52;5.85;;;3.10;;
25079;SDS011;13071;48.868;9.996;2023-05-29T14:38:18;5.53;;;3.10;;
25079;SDS011;13071;48.868;9.996;2023-05-29T14:40:45;4.28;;;2.88;;
25079;SDS011;13071;48.868;9.996;2023-05-29T14:43:11;4.90;;;2.30;;
25079;SDS011;13071;48.868;9.996;2023-05-29T14:45:38;5.72;;;3.13;;
25079;SDS011;13071;48.868;9.996;2023-05-29T14:48:05;4.95;;;2.85;;
25079;SDS011;13071;48.868;9.996;2023-05-29T14:50:31;6.70;;;3.10;;
25079;SDS011;13071;48.868;9.996;2023-05-29T14:52:59;4.88;;;2.70;;
25079;SDS011;13071;48.868;9.996;2023-05-29T14:55:26;5.25;;;3.03;;